Time;durP1;ratioP1;P1;durP2;ratioP2;P2;SDS_P1;SDS_P2;PMS_P1;PMS_P2;Temp;Humidity;BMP_temperature;BMP_pressure;BME280_temperature;BME280_humidity;BME280_pressure;Samples;Min_cycle;Max_cycle;Signal;HPM_P1;HPM_P2
2021/03/25 00:00:54;;;;;;;47.03;27.27;;;6.90;99.90;;;;;;5013078;28;20235;-65
2021/03/25 00:03:21;;;;;;;47.10;28.33;;;6.80;99.90;;;;;;5014523;28;20197;-68
2021/03/25 00:05:49;;;;;;;48.23;27.47;;;6.70;99.90;;;;;;5013063;28;20289;-67
2021/03/25 00:08:20;;;;;;;49.33;28.40;;;6.70;99.90;;;;;;5014088;28;20209;-67
2021/03/25 00:10:47;;;;;;;48.43;28.33;;;6.70;99.90;;;;;;5011894;28;20196;-68
2021/03/25 00:13:14;;;;;;;54.70;29.37;;;6.60;99.90;;;;;;5012693;28;20204;-64
2021/03/25 00:15:40;;;;;;;53.60;29.73;;;6.60;99.90;;;;;;5014182;28;20239;-68
2021/03/25 00:18:08;;;;;;;49.40;29.00;;;6.70;99.90;;;;;;5013180;28;20209;-66
2021/03/25 00:20:34;;;;;;;51.13;29.83;;;6.70;99.90;;;;;;5015046;28;20197;-65
2021/03/25 00:23:01;;;;;;;48.27;30.07;;;6.60;99.90;;;;;;5012941;28;20232;-66
2021/03/25 00:25:31;;;;;;;51.70;30.07;;;6.60;99.90;;;;;;5012726;28;20209;-66
2021/03/25 00:27:59;;;;;;;58.30;31.57;;;6.50;99.90;;;;;;5018085;28;20197;-66
2021/03/25 00:30:28;;;;;;;51.73;31.93;;;6.50;99.90;;;;;;5014461;28;20208;-66
2021/03/25 00:32:56;;;;;;;47.10;30.80;;;6.50;99.90;;;;;;5014542;28;20196;-66
2021/03/25 00:35:24;;;;;;;52.33;31.77;;;6.40;99.90;;;;;;5013004;28;20839;-65
2021/03/25 00:37:50;;;;;;;54.57;31.03;;;6.40;99.90;;;;;;5014365;28;20201;-65
2021/03/25 00:40:18;;;;;;;53.97;31.60;;;6.30;99.90;;;;;;5013507;28;20695;-66
2021/03/25 00:42:44;;;;;;;52.30;30.47;;;6.30;99.90;;;;;;5010779;28;20709;-66
2021/03/25 00:45:14;;;;;;;51.57;31.00;;;6.30;99.90;;;;;;5014640;28;22443;-66
2021/03/25 00:47:42;;;;;;;48.10;30.57;;;6.20;99.90;;;;;;5012309;28;20643;-66
2021/03/25 00:50:09;;;;;;;53.53;30.47;;;6.20;99.90;;;;;;5011381;28;20284;-65
2021/03/25 00:52:37;;;;;;;52.37;30.20;;;6.10;99.90;;;;;;5011591;28;20212;-66
2021/03/25 00:55:04;;;;;;;49.97;31.03;;;6.00;99.90;;;;;;5015549;28;20260;-66
2021/03/25 00:57:31;;;;;;;53.77;30.93;;;6.00;99.90;;;;;;5010396;28;20204;-66
2021/03/25 00:59:57;;;;;;;53.43;31.50;;;5.90;99.90;;;;;;5013902;28;20228;-65
2021/03/25 01:02:25;;;;;;;63.17;33.03;;;5.90;99.90;;;;;;5016275;28;20728;-66
2021/03/25 01:04:51;;;;;;;55.50;31.50;;;5.80;99.90;;;;;;5012005;28;20201;-66
2021/03/25 01:07:23;;;;;;;56.37;32.23;;;5.70;99.90;;;;;;5013779;28;20197;-66
2021/03/25 01:09:50;;;;;;;58.60;34.03;;;5.80;99.90;;;;;;5014329;28;20565;-65
2021/03/25 01:12:16;;;;;;;63.57;34.77;;;5.90;99.90;;;;;;5010038;28;20244;-67
2021/03/25 01:14:43;;;;;;;61.93;36.13;;;6.00;99.90;;;;;;5012625;28;21203;-66
2021/03/25 01:17:09;;;;;;;63.83;34.97;;;6.10;99.90;;;;;;5014368;28;20247;-65
2021/03/25 01:19:37;;;;;;;65.13;35.07;;;6.20;99.90;;;;;;5011685;28;20204;-66
2021/03/25 01:22:04;;;;;;;64.97;35.83;;;6.20;99.90;;;;;;5010291;28;20282;-64
2021/03/25 01:24:30;;;;;;;64.33;37.43;;;6.30;99.90;;;;;;5011480;28;20232;-65
2021/03/25 01:26:57;;;;;;;65.83;35.80;;;6.30;99.90;;;;;;5014438;28;20201;-65
2021/03/25 01:29:23;;;;;;;64.77;36.47;;;6.30;99.90;;;;;;5016908;28;20203;-66
2021/03/25 01:31:50;;;;;;;66.63;36.87;;;6.40;99.90;;;;;;5010559;28;20216;-66
2021/03/25 01:34:20;;;;;;;69.50;37.27;;;6.50;99.90;;;;;;5009602;28;20208;-66
2021/03/25 01:36:48;;;;;;;66.60;37.10;;;6.60;99.90;;;;;;5012705;28;20200;-66
2021/03/25 01:39:14;;;;;;;69.33;37.33;;;6.70;99.90;;;;;;5014897;28;20196;-65
2021/03/25 01:41:42;;;;;;;64.63;36.77;;;6.70;99.90;;;;;;5010305;28;20278;-66
2021/03/25 01:44:30;;;;;;;70.33;37.23;;;6.80;99.90;;;;;;5013286;28;20220;-66
2021/03/25 01:46:56;;;;;;;62.97;36.33;;;6.80;99.90;;;;;;5026502;28;20609;-65
2021/03/25 01:49:22;;;;;;;61.37;36.57;;;6.80;99.90;;;;;;5031509;28;20228;-65
2021/03/25 01:51:57;;;;;;;62.93;35.90;;;6.90;99.90;;;;;;5030759;28;20196;-67
2021/03/25 01:54:45;;;;;;;63.43;35.27;;;6.80;99.90;;;;;;5012559;28;20219;-66
2021/03/25 01:57:38;;;;;;;63.20;35.83;;;6.90;99.90;;;;;;5009054;28;20251;-67
2021/03/25 02:00:20;;;;;;;78.13;36.20;;;7.00;99.90;;;;;;5013765;28;20282;-68
2021/03/25 02:03:05;;;;;;;70.13;35.57;;;7.10;99.90;;;;;;5010218;28;20784;-68
2021/03/25 02:05:40;;;;;;;66.27;37.10;;;7.10;99.90;;;;;;5010985;28;20214;-65
2021/03/25 02:08:17;;;;;;;60.50;35.47;;;7.20;99.90;;;;;;5016133;28;20197;-66
2021/03/25 02:10:52;;;;;;;59.93;36.37;;;7.20;99.90;;;;;;5010602;28;20211;-66
2021/03/25 02:13:30;;;;;;;60.10;33.30;;;7.30;99.90;;;;;;5011111;28;20197;-64
2021/03/25 02:16:01;;;;;;;65.87;35.83;;;7.40;99.90;;;;;;5011799;28;20204;-66
2021/03/25 02:18:34;;;;;;;60.43;34.87;;;7.40;99.90;;;;;;5011757;28;20196;-68
2021/03/25 02:21:18;;;;;;;57.90;33.10;;;7.30;99.90;;;;;;5010033;28;20692;-68
2021/03/25 02:24:14;;;;;;;61.47;32.80;;;7.30;99.90;;;;;;5009717;28;20232;-68
2021/03/25 02:26:46;;;;;;;57.87;32.77;;;7.30;99.90;;;;;;5015424;28;20224;-67
2021/03/25 02:29:37;;;;;;;57.43;35.00;;;7.30;99.90;;;;;;5013937;28;20199;-66
2021/03/25 02:32:09;;;;;;;57.60;33.90;;;7.40;99.90;;;;;;5012875;28;20201;-67
2021/03/25 02:34:40;;;;;;;55.83;34.73;;;7.40;99.90;;;;;;5011320;28;20212;-68
2021/03/25 02:37:11;;;;;;;57.57;32.80;;;7.40;99.90;;;;;;5010330;28;20212;-66
2021/03/25 02:39:43;;;;;;;54.77;32.87;;;7.40;99.90;;;;;;5010514;28;20859;-67
2021/03/25 02:42:14;;;;;;;54.37;34.33;;;7.40;99.90;;;;;;5011629;28;20220;-67
2021/03/25 02:44:45;;;;;;;59.63;35.03;;;7.40;99.90;;;;;;5011273;28;20201;-68
2021/03/25 02:47:14;;;;;;;59.33;33.80;;;7.40;99.90;;;;;;5010783;28;20197;-66
2021/03/25 02:49:55;;;;;;;58.00;34.27;;;7.40;99.90;;;;;;5012852;28;20205;-66
2021/03/25 02:52:24;;;;;;;57.03;32.77;;;7.40;99.90;;;;;;5010464;28;20205;-66
2021/03/25 02:54:51;;;;;;;52.33;31.87;;;7.40;99.90;;;;;;5012478;28;20212;-65
2021/03/25 02:57:24;;;;;;;56.47;32.13;;;7.40;99.90;;;;;;5013936;28;20197;-66
2021/03/25 02:59:56;;;;;;;53.30;31.83;;;7.40;99.90;;;;;;5011172;28;20204;-66
2021/03/25 03:02:29;;;;;;;53.27;32.20;;;7.40;99.90;;;;;;5009221;28;20771;-67
2021/03/25 03:05:01;;;;;;;53.07;31.93;;;7.30;99.90;;;;;;5009158;28;20205;-67
2021/03/25 03:07:31;;;;;;;57.33;33.40;;;7.40;99.90;;;;;;5009372;28;20200;-67
2021/03/25 03:10:02;;;;;;;52.40;32.73;;;7.40;99.90;;;;;;5009049;28;20193;-67
2021/03/25 03:12:36;;;;;;;54.30;32.33;;;7.30;99.90;;;;;;5009729;28;20686;-67
2021/03/25 03:15:06;;;;;;;51.77;33.00;;;7.30;99.90;;;;;;5011670;28;20339;-66
2021/03/25 03:17:37;;;;;;;58.07;32.83;;;7.20;99.90;;;;;;5009539;28;20211;-67
2021/03/25 03:20:08;;;;;;;56.30;32.13;;;7.30;99.90;;;;;;5011610;28;20196;-65
2021/03/25 03:22:35;;;;;;;61.33;32.87;;;7.30;99.90;;;;;;5009805;28;20224;-65
2021/03/25 03:25:07;;;;;;;55.10;32.53;;;7.20;99.90;;;;;;5014891;28;20692;-65
2021/03/25 03:27:39;;;;;;;54.50;31.83;;;7.10;99.90;;;;;;5009267;28;20193;-65
2021/03/25 03:30:10;;;;;;;58.17;32.97;;;7.00;99.90;;;;;;5012850;28;20560;-67
2021/03/25 03:32:46;;;;;;;56.80;32.57;;;6.80;99.90;;;;;;5012906;28;20232;-68
2021/03/25 03:35:17;;;;;;;50.60;30.90;;;6.60;99.90;;;;;;5014709;28;20212;-67
2021/03/25 03:37:47;;;;;;;53.60;31.67;;;6.40;99.90;;;;;;5010028;28;20601;-67
2021/03/25 03:40:18;;;;;;;52.30;30.70;;;6.30;99.90;;;;;;5010363;28;20223;-66
2021/03/25 03:42:46;;;;;;;54.17;32.60;;;6.30;99.90;;;;;;5010210;28;20209;-66
2021/03/25 03:45:17;;;;;;;51.50;32.83;;;6.30;99.90;;;;;;5009749;28;20209;-67
2021/03/25 03:47:46;;;;;;;56.40;33.77;;;6.30;99.90;;;;;;5015561;28;20201;-67
2021/03/25 03:50:18;;;;;;;58.23;34.03;;;6.30;99.90;;;;;;5014049;28;20235;-66
2021/03/25 03:52:49;;;;;;;60.93;34.67;;;6.40;99.90;;;;;;5012941;28;20197;-66
2021/03/25 03:55:17;;;;;;;62.80;35.57;;;6.40;99.90;;;;;;5012767;28;20597;-66
2021/03/25 03:57:50;;;;;;;61.77;35.43;;;6.40;99.90;;;;;;5017298;28;20220;-65
2021/03/25 04:00:23;;;;;;;65.13;36.23;;;6.50;99.90;;;;;;5013915;28;20294;-66
2021/03/25 04:03:07;;;;;;;58.43;34.57;;;6.60;99.90;;;;;;5015603;28;20229;-66
2021/03/25 04:05:37;;;;;;;59.87;35.47;;;6.60;99.90;;;;;;5010535;28;20197;-66
2021/03/25 04:08:10;;;;;;;57.70;34.27;;;6.60;99.90;;;;;;5011173;28;20615;-67
2021/03/25 04:10:41;;;;;;;61.27;35.73;;;6.70;99.90;;;;;;5014797;28;20657;-67
2021/03/25 04:13:11;;;;;;;58.53;35.07;;;6.70;99.90;;;;;;5011695;28;20248;-66
2021/03/25 04:15:41;;;;;;;70.60;36.97;;;6.70;99.90;;;;;;5014079;28;20212;-68
2021/03/25 04:18:15;;;;;;;63.53;36.60;;;6.70;99.90;;;;;;5013994;28;20197;-68
2021/03/25 04:20:46;;;;;;;63.97;37.00;;;6.80;99.90;;;;;;5012444;28;20232;-68
2021/03/25 04:23:15;;;;;;;69.07;38.17;;;6.80;99.90;;;;;;5014819;28;20708;-66
2021/03/25 04:25:44;;;;;;;61.43;36.53;;;6.90;99.90;;;;;;5017405;28;20204;-67
2021/03/25 04:28:17;;;;;;;66.83;37.20;;;6.90;99.90;;;;;;5013472;28;20208;-66
2021/03/25 04:30:46;;;;;;;70.30;37.10;;;6.90;99.90;;;;;;5011668;28;20239;-67
2021/03/25 04:33:14;;;;;;;69.07;36.00;;;6.90;99.90;;;;;;5014190;28;20208;-65
2021/03/25 04:35:42;;;;;;;60.33;35.37;;;7.00;99.90;;;;;;5013217;28;20606;-67
2021/03/25 04:38:11;;;;;;;65.20;36.47;;;7.00;99.90;;;;;;5010964;28;22363;-67
2021/03/25 04:40:40;;;;;;;60.47;35.47;;;7.00;99.90;;;;;;5015410;28;20224;-67
2021/03/25 04:43:07;;;;;;;60.53;35.57;;;7.00;99.90;;;;;;5012339;28;20623;-66
2021/03/25 04:45:45;;;;;;;63.57;35.63;;;7.00;99.90;;;;;;5012265;28;20204;-67
2021/03/25 04:48:16;;;;;;;61.37;36.00;;;7.00;99.90;;;;;;5011476;28;20207;-66
2021/03/25 04:50:48;;;;;;;59.23;34.77;;;7.00;99.90;;;;;;5013035;28;20204;-67
2021/03/25 04:53:22;;;;;;;59.80;36.60;;;7.00;99.90;;;;;;5010821;28;20208;-67
2021/03/25 04:55:49;;;;;;;60.13;34.43;;;7.00;99.90;;;;;;5012792;28;20193;-66
2021/03/25 04:58:27;;;;;;;68.37;34.70;;;7.00;99.90;;;;;;5013715;28;20200;-67
2021/03/25 05:00:54;;;;;;;61.43;35.03;;;7.00;99.90;;;;;;5011061;28;20240;-66
2021/03/25 05:03:23;;;;;;;61.47;36.17;;;7.10;99.90;;;;;;5013881;28;20263;-65
2021/03/25 05:05:54;;;;;;;61.53;36.57;;;7.10;99.90;;;;;;5011123;28;20239;-65
2021/03/25 05:08:25;;;;;;;60.97;36.53;;;7.10;99.90;;;;;;5012855;28;20200;-66
2021/03/25 05:10:59;;;;;;;60.73;35.73;;;7.10;99.90;;;;;;5010659;28;20197;-65
2021/03/25 05:13:29;;;;;;;59.80;35.17;;;7.10;99.90;;;;;;5011387;28;20240;-66
2021/03/25 05:16:09;;;;;;;66.97;36.80;;;7.10;99.90;;;;;;5011298;28;20205;-66
2021/03/25 05:18:38;;;;;;;55.03;34.93;;;7.20;99.90;;;;;;5014009;28;20208;-67
2021/03/25 05:21:08;;;;;;;60.77;35.23;;;7.20;99.90;;;;;;5010262;28;20201;-67
2021/03/25 05:23:44;;;;;;;59.33;36.50;;;7.20;99.90;;;;;;5016975;28;20205;-65
2021/03/25 05:26:17;;;;;;;57.20;34.63;;;7.20;99.90;;;;;;5011873;28;20605;-65
2021/03/25 05:28:50;;;;;;;59.10;34.73;;;7.30;99.90;;;;;;5014255;28;20200;-65
2021/03/25 05:31:18;;;;;;;53.60;34.40;;;7.30;99.90;;;;;;5010808;28;20200;-67
2021/03/25 05:33:54;;;;;;;54.60;34.20;;;7.30;99.90;;;;;;5013191;28;20253;-65
2021/03/25 05:36:21;;;;;;;54.03;33.27;;;7.30;99.90;;;;;;5015849;28;20196;-66
2021/03/25 05:38:48;;;;;;;56.03;33.27;;;7.30;99.90;;;;;;5012912;28;20204;-66
2021/03/25 05:41:26;;;;;;;53.27;34.10;;;7.30;99.90;;;;;;5013141;28;20205;-66
2021/03/25 05:44:30;;;;;;;51.77;32.17;;;7.40;99.90;;;;;;5011808;28;20554;-66
2021/03/25 05:47:10;;;;;;;56.67;33.60;;;7.40;99.90;;;;;;5015535;28;20661;-65
2021/03/25 05:49:48;;;;;;;54.33;32.47;;;7.50;99.90;;;;;;5010946;28;20681;-67
2021/03/25 05:52:28;;;;;;;59.47;33.80;;;7.50;99.90;;;;;;5013091;28;20200;-65
2021/03/25 05:55:07;;;;;;;55.57;32.47;;;7.60;99.90;;;;;;5011668;28;20673;-67
2021/03/25 05:57:43;;;;;;;59.53;33.80;;;7.60;99.90;;;;;;5010036;28;20719;-68
2021/03/25 06:00:21;;;;;;;53.30;32.57;;;7.60;99.90;;;;;;5014050;28;20236;-66
2021/03/25 06:02:51;;;;;;;51.83;30.57;;;7.70;99.90;;;;;;5011171;28;20302;-67
2021/03/25 06:05:19;;;;;;;51.57;31.50;;;7.80;99.90;;;;;;5016105;28;20219;-67
2021/03/25 06:08:18;;;;;;;52.33;30.33;;;7.80;99.90;;;;;;5011816;28;20205;-68
2021/03/25 06:11:04;;;;;;;50.37;28.83;;;7.90;99.90;;;;;;5007709;28;20227;-68
2021/03/25 06:13:45;;;;;;;49.93;29.33;;;8.00;99.90;;;;;;5011861;28;20573;-67
2021/03/25 06:16:31;;;;;;;54.83;30.43;;;8.10;99.90;;;;;;5010464;28;20205;-67
2021/03/25 06:19:16;;;;;;;51.40;30.30;;;8.10;99.90;;;;;;5009696;28;20201;-68
2021/03/25 06:22:06;;;;;;;55.10;31.40;;;8.10;99.90;;;;;;4969351;28;20598;-66
2021/03/25 06:24:59;;;;;;;64.57;34.10;;;8.10;99.90;;;;;;5011520;28;20201;-67
2021/03/25 06:27:36;;;;;;;55.63;34.00;;;8.10;99.90;;;;;;5012220;28;20197;-67
2021/03/25 06:30:10;;;;;;;58.63;35.63;;;8.10;99.90;;;;;;5009310;28;20657;-66
2021/03/25 06:32:52;;;;;;;63.27;36.27;;;8.10;99.90;;;;;;5011153;28;20208;-68
2021/03/25 06:35:23;;;;;;;63.93;36.67;;;8.10;99.90;;;;;;5010731;28;20200;-67
2021/03/25 06:37:57;;;;;;;64.17;36.73;;;8.10;99.90;;;;;;5009466;28;20212;-66
2021/03/25 06:40:28;;;;;;;61.00;36.60;;;8.10;99.90;;;;;;5011794;28;20205;-67
2021/03/25 06:43:00;;;;;;;62.90;37.30;;;8.10;99.90;;;;;;5009663;28;20229;-66
2021/03/25 06:45:32;;;;;;;65.83;37.27;;;8.10;99.90;;;;;;5011734;28;20661;-67
2021/03/25 06:48:02;;;;;;;62.07;36.37;;;8.10;99.90;;;;;;5012131;28;20663;-67
2021/03/25 06:50:34;;;;;;;67.73;39.03;;;8.10;99.90;;;;;;5009890;28;20196;-67
2021/03/25 06:53:13;;;;;;;74.03;39.47;;;8.10;99.90;;;;;;5010160;28;20200;-67
2021/03/25 06:55:40;;;;;;;73.63;38.60;;;8.10;99.90;;;;;;5008556;28;20197;-69
2021/03/25 06:58:12;;;;;;;69.03;38.43;;;8.10;99.90;;;;;;5008958;28;20200;-68
2021/03/25 07:00:43;;;;;;;72.93;39.53;;;8.10;99.90;;;;;;5010302;28;20228;-67
2021/03/25 07:03:16;;;;;;;64.13;38.27;;;8.20;99.90;;;;;;5008192;28;20216;-68
2021/03/25 07:05:45;;;;;;;71.60;39.33;;;8.20;99.90;;;;;;5010791;28;20592;-66
2021/03/25 07:08:17;;;;;;;73.90;38.70;;;8.20;99.90;;;;;;5010746;28;20197;-66
2021/03/25 07:10:44;;;;;;;66.87;39.40;;;8.20;99.90;;;;;;5009605;28;20258;-67
2021/03/25 07:13:17;;;;;;;64.83;37.83;;;8.20;99.90;;;;;;5010792;28;20232;-68
2021/03/25 07:15:44;;;;;;;67.27;39.60;;;8.20;99.90;;;;;;5013944;28;20207;-67
2021/03/25 07:18:25;;;;;;;64.83;40.80;;;8.30;99.90;;;;;;5009233;28;20193;-67
2021/03/25 07:21:23;;;;;;;67.93;38.93;;;8.20;99.90;;;;;;5017321;28;20203;-68
2021/03/25 07:23:53;;;;;;;67.57;38.57;;;8.20;99.90;;;;;;5015255;28;20200;-68
2021/03/25 07:26:24;;;;;;;71.67;38.90;;;8.30;99.90;;;;;;5015755;28;20554;-67
2021/03/25 07:29:00;;;;;;;69.70;39.83;;;8.20;99.90;;;;;;5016168;28;20629;-67
2021/03/25 07:31:36;;;;;;;69.73;40.13;;;8.20;99.90;;;;;;5012900;28;20252;-68
2021/03/25 07:34:03;;;;;;;68.20;39.57;;;8.30;99.90;;;;;;5016446;28;20196;-67
2021/03/25 07:36:30;;;;;;;72.10;41.47;;;8.30;99.90;;;;;;5012599;28;20205;-67
2021/03/25 07:39:05;;;;;;;81.10;41.00;;;8.30;99.90;;;;;;5016011;28;20212;-68
2021/03/25 07:41:43;;;;;;;76.07;40.13;;;8.30;99.90;;;;;;5012998;28;20196;-66
2021/03/25 07:44:28;;;;;;;73.03;40.10;;;8.30;99.90;;;;;;5014953;28;20192;-65
2021/03/25 07:46:57;;;;;;;73.23;39.90;;;8.40;99.90;;;;;;5013395;28;20197;-66
2021/03/25 07:49:26;;;;;;;75.30;39.53;;;8.40;99.90;;;;;;5013240;28;20197;-66
2021/03/25 07:51:53;;;;;;;75.50;40.77;;;8.40;99.90;;;;;;5016292;28;20215;-67
2021/03/25 07:54:28;;;;;;;71.87;39.80;;;8.50;99.90;;;;;;5014110;28;20228;-67
2021/03/25 07:57:13;;;;;;;83.23;41.10;;;8.50;99.90;;;;;;5013702;28;20196;-66
2021/03/25 07:59:46;;;;;;;79.73;42.87;;;8.50;99.90;;;;;;5013898;28;20201;-66
2021/03/25 08:02:28;;;;;;;77.97;40.77;;;8.50;99.90;;;;;;5014870;28;20269;-67
2021/03/25 08:04:55;;;;;;;72.63;41.00;;;8.60;99.90;;;;;;5013073;28;20189;-66
2021/03/25 08:07:23;;;;;;;74.83;39.67;;;8.60;99.90;;;;;;5015463;28;20212;-68
2021/03/25 08:09:53;;;;;;;80.67;41.80;;;8.60;99.90;;;;;;5012024;28;20216;-66
2021/03/25 08:12:27;;;;;;;71.83;41.47;;;8.70;99.90;;;;;;5012862;28;20661;-67
2021/03/25 08:15:19;;;;;;;81.83;43.43;;;8.70;99.90;;;;;;5013189;28;20196;-65
2021/03/25 08:17:54;;;;;;;81.97;41.63;;;8.70;99.90;;;;;;5013834;28;20434;-69
2021/03/25 08:20:26;;;;;;;85.30;41.50;;;8.80;99.90;;;;;;5018978;28;20196;-68
2021/03/25 08:23:05;;;;;;;86.30;43.80;;;8.80;99.90;;;;;;5012729;28;20217;-69
2021/03/25 08:25:40;;;;;;;83.10;41.57;;;8.80;99.90;;;;;;5014694;28;20569;-69
2021/03/25 08:28:24;;;;;;;81.97;41.27;;;8.80;99.90;;;;;;5014244;28;20232;-68
2021/03/25 08:31:20;;;;;;;78.20;40.80;;;8.80;99.90;;;;;;5014474;28;20207;-68
2021/03/25 08:34:00;;;;;;;75.60;41.07;;;8.80;99.90;;;;;;5013204;28;20569;-68
2021/03/25 08:36:39;;;;;;;76.03;41.43;;;8.80;99.90;;;;;;5012419;28;20197;-67
2021/03/25 08:39:27;;;;;;;77.93;39.40;;;8.90;99.90;;;;;;5012762;28;20204;-66
2021/03/25 08:42:01;;;;;;;75.93;40.63;;;8.80;99.90;;;;;;5029834;28;20220;-67
2021/03/25 08:44:35;;;;;;;72.03;39.17;;;8.80;99.90;;;;;;5031509;28;20192;-67
2021/03/25 08:47:06;;;;;;;74.00;39.00;;;8.80;99.90;;;;;;5034335;28;20193;-66
2021/03/25 08:49:36;;;;;;;69.13;39.40;;;8.90;99.90;;;;;;5033318;28;20204;-66
2021/03/25 08:52:07;;;;;;;73.20;39.00;;;8.90;99.90;;;;;;5030366;28;20196;-66
2021/03/25 08:54:39;;;;;;;77.97;40.37;;;9.00;99.90;;;;;;5016594;28;20552;-67
2021/03/25 08:57:14;;;;;;;78.90;40.40;;;9.20;99.90;;;;;;5013065;28;20216;-67
2021/03/25 08:59:45;;;;;;;73.90;41.63;;;9.40;99.90;;;;;;5013582;28;20665;-66
2021/03/25 09:02:17;;;;;;;73.33;42.33;;;9.70;99.90;;;;;;5012192;28;20219;-67
2021/03/25 09:04:52;;;;;;;70.80;39.77;;;10.00;99.90;;;;;;5011633;28;20207;-67
2021/03/25 09:07:20;;;;;;;71.50;38.60;;;10.20;99.90;;;;;;5010375;28;20647;-66
2021/03/25 09:09:50;;;;;;;64.27;37.63;;;10.30;99.90;;;;;;5013012;28;20558;-67
2021/03/25 09:12:21;;;;;;;57.93;36.20;;;10.40;99.90;;;;;;5032733;28;20196;-68
2021/03/25 09:14:49;;;;;;;49.37;32.43;;;10.70;99.90;;;;;;5027763;28;20189;-67
2021/03/25 09:17:19;;;;;;;51.50;31.53;;;10.70;99.90;;;;;;5022191;28;20275;-67
2021/03/25 09:19:49;;;;;;;46.60;30.03;;;10.50;99.90;;;;;;5024754;28;20204;-68
2021/03/25 09:22:39;;;;;;;45.90;30.90;;;10.50;99.90;;;;;;5031328;28;20224;-68
2021/03/25 09:25:40;;;;;;;41.77;27.90;;;10.50;99.90;;;;;;5017099;28;20200;-68
2021/03/25 09:28:15;;;;;;;43.17;28.60;;;10.40;99.90;;;;;;5033260;28;20192;-67
2021/03/25 09:30:44;;;;;;;40.07;26.37;;;10.50;99.90;;;;;;5025913;28;20282;-67
2021/03/25 09:33:43;;;;;;;42.17;28.90;;;10.70;99.90;;;;;;5025431;28;20196;-66
2021/03/25 09:36:49;;;;;;;40.60;26.57;;;10.80;99.90;;;;;;5030133;28;20653;-66
2021/03/25 09:39:34;;;;;;;40.43;27.17;;;11.00;99.90;;;;;;5031020;28;20588;-66
2021/03/25 09:42:05;;;;;;;36.87;25.17;;;11.40;99.90;;;;;;5032793;28;20215;-66
2021/03/25 09:44:38;;;;;;;30.13;22.33;;;11.90;99.90;;;;;;5028955;28;20193;-66
2021/03/25 09:47:24;;;;;;;27.43;19.90;;;12.60;99.90;;;;;;5033175;28;20542;-66
2021/03/25 09:49:55;;;;;;;22.43;16.00;;;13.40;99.90;;;;;;5032579;28;20197;-66
2021/03/25 09:52:31;;;;;;;20.70;15.63;;;14.20;99.90;;;;;;5031560;28;20200;-66
2021/03/25 09:55:15;;;;;;;21.80;15.37;;;14.70;99.90;;;;;;5029845;28;20242;-66
2021/03/25 09:57:43;;;;;;;19.60;14.47;;;15.50;99.90;;;;;;5022518;28;20189;-65
2021/03/25 10:00:33;;;;;;;19.33;14.90;;;15.80;99.90;;;;;;5032389;28;20228;-65
2021/03/25 10:03:02;;;;;;;17.20;12.70;;;16.10;99.90;;;;;;5021751;28;20229;-67
2021/03/25 10:05:37;;;;;;;14.23;9.87;;;16.20;99.90;;;;;;5010553;28;20204;-68
2021/03/25 10:08:20;;;;;;;12.20;9.43;;;16.30;99.90;;;;;;5013320;28;20200;-67
2021/03/25 10:10:49;;;;;;;13.53;9.43;;;16.40;99.90;;;;;;5012741;28;20289;-68
2021/03/25 10:13:32;;;;;;;14.13;10.37;;;16.50;99.90;;;;;;5009794;28;20200;-65
2021/03/25 10:16:00;;;;;;;14.53;10.20;;;16.60;99.90;;;;;;5011985;28;20284;-64
2021/03/25 10:18:49;;;;;;;13.07;10.10;;;16.40;99.90;;;;;;5023103;28;20200;-64
2021/03/25 10:21:18;;;;;;;13.07;10.47;;;16.90;99.90;;;;;;5027518;28;20214;-65
2021/03/25 10:23:56;;;;;;;13.00;10.53;;;16.90;99.90;;;;;;5018417;28;20625;-65
2021/03/25 10:26:30;;;;;;;14.73;11.13;;;17.00;99.90;;;;;;5017406;28;20197;-68
2021/03/25 10:29:02;;;;;;;15.30;10.37;;;17.20;99.90;;;;;;5018456;28;20207;-66
2021/03/25 10:31:33;;;;;;;14.30;10.70;;;17.80;99.90;;;;;;5019211;28;20196;-66
2021/03/25 10:34:08;;;;;;;13.33;10.57;;;18.00;99.90;;;;;;5020360;28;20611;-65
2021/03/25 10:36:38;;;;;;;12.50;9.60;;;18.10;99.90;;;;;;5023111;28;20187;-64
2021/03/25 10:39:06;;;;;;;10.97;9.63;;;18.10;99.90;;;;;;5018510;28;20196;-68
2021/03/25 10:41:37;;;;;;;13.57;10.40;;;18.10;99.90;;;;;;5019743;28;20200;-64
2021/03/25 10:44:23;;;;;;;15.77;9.67;;;17.70;99.90;;;;;;5019828;28;20216;-66
2021/03/25 10:46:50;;;;;;;16.70;9.47;;;17.40;99.90;;;;;;5020508;28;20200;-66
2021/03/25 10:49:21;;;;;;;16.13;9.50;;;17.10;99.90;;;;;;5018757;28;20205;-67
2021/03/25 10:51:50;;;;;;;14.77;9.43;;;16.30;99.90;;;;;;5018914;28;20200;-66
2021/03/25 10:54:25;;;;;;;13.10;9.23;;;15.90;99.90;;;;;;5019455;28;20568;-68
2021/03/25 10:56:58;;;;;;;12.23;9.33;;;15.90;99.90;;;;;;5022645;28;20196;-66
2021/03/25 10:59:26;;;;;;;14.47;9.90;;;16.00;99.90;;;;;;5022522;28;20284;-67
2021/03/25 11:01:56;;;;;;;16.50;9.63;;;15.80;99.90;;;;;;5022566;28;20239;-66
2021/03/25 11:04:25;;;;;;;13.83;9.17;;;15.40;99.90;;;;;;5023950;28;20239;-66
2021/03/25 11:06:52;;;;;;;14.90;9.97;;;15.00;99.90;;;;;;5022505;28;20250;-66
2021/03/25 11:09:24;;;;;;;13.93;8.30;;;14.60;99.90;;;;;;5022485;28;20313;-65
2021/03/25 11:11:53;;;;;;;11.47;9.17;;;14.40;99.90;;;;;;5021656;28;20200;-66
2021/03/25 11:14:24;;;;;;;14.03;7.50;;;14.50;99.90;;;;;;5025859;28;20208;-68
2021/03/25 11:16:54;;;;;;;12.70;8.10;;;14.50;99.90;;;;;;5026739;28;20275;-70
2021/03/25 11:19:23;;;;;;;9.10;6.53;;;14.60;99.90;;;;;;5022131;28;20197;-66
2021/03/25 11:21:51;;;;;;;11.60;7.10;;;14.80;99.90;;;;;;5020691;28;20204;-66
2021/03/25 11:24:23;;;;;;;10.90;7.63;;;14.80;99.90;;;;;;5022798;28;20201;-66
2021/03/25 11:26:55;;;;;;;11.70;6.33;;;14.80;99.90;;;;;;5021395;28;20208;-66
2021/03/25 11:29:23;;;;;;;11.97;7.20;;;14.90;99.90;;;;;;5019545;28;20251;-67
2021/03/25 11:32:08;;;;;;;14.10;7.27;;;15.00;99.90;;;;;;5021852;28;20259;-65
2021/03/25 11:34:34;;;;;;;9.10;6.73;;;15.30;99.90;;;;;;5022574;28;20229;-66
2021/03/25 11:37:03;;;;;;;6.43;4.63;;;15.70;99.90;;;;;;5020110;28;20205;-65
2021/03/25 11:39:31;;;;;;;10.73;6.03;;;15.90;99.90;;;;;;5019592;28;20306;-66
2021/03/25 11:42:00;;;;;;;8.60;5.83;;;16.00;99.90;;;;;;5020129;28;20204;-66
2021/03/25 11:44:47;;;;;;;9.13;6.13;;;15.80;99.90;;;;;;5022530;28;20201;-66
2021/03/25 11:47:33;;;;;;;8.13;4.77;;;15.90;99.90;;;;;;5022423;28;20224;-66
2021/03/25 11:50:00;;;;;;;9.40;5.27;;;16.00;99.90;;;;;;5021301;28;20239;-65
2021/03/25 11:52:38;;;;;;;7.83;3.40;;;16.30;99.90;;;;;;5023381;28;20201;-66
2021/03/25 11:55:05;;;;;;;7.00;3.73;;;16.60;99.90;;;;;;5020875;28;20200;-65
2021/03/25 11:57:35;;;;;;;9.10;4.50;;;17.00;99.90;;;;;;5021608;28;20538;-65
2021/03/25 12:00:11;;;;;;;7.27;2.60;;;17.50;99.90;;;;;;5020027;28;20260;-65
2021/03/25 12:02:38;;;;;;;6.00;2.70;;;17.60;99.90;;;;;;5022362;28;20208;-66
2021/03/25 12:05:31;;;;;;;6.00;2.90;;;17.80;99.90;;;;;;5022070;28;20975;-66
2021/03/25 12:08:03;;;;;;;4.60;2.67;;;17.90;99.90;;;;;;5019907;28;20320;-66
2021/03/25 12:10:30;;;;;;;6.23;3.13;;;18.10;99.90;;;;;;5020364;28;20211;-65
2021/03/25 12:12:56;;;;;;;7.03;2.53;;;18.30;99.90;;;;;;5021554;28;20612;-65
2021/03/25 12:15:23;;;;;;;6.73;2.67;;;18.80;99.90;;;;;;5021771;28;20196;-66
2021/03/25 12:17:55;;;;;;;4.37;2.27;;;18.90;99.90;;;;;;5022246;28;20202;-65
2021/03/25 12:20:26;;;;;;;6.67;2.73;;;18.90;99.90;;;;;;5023689;28;20208;-66
2021/03/25 12:23:01;;;;;;;5.93;2.80;;;19.20;99.90;;;;;;5020213;28;20686;-66
2021/03/25 12:25:29;;;;;;;5.83;2.20;;;19.10;99.90;;;;;;5022475;28;20556;-66
2021/03/25 12:27:55;;;;;;;5.67;2.37;;;19.10;99.90;;;;;;5021246;28;20201;-66
2021/03/25 12:30:23;;;;;;;8.53;2.70;;;19.00;99.90;;;;;;5023072;28;20562;-66
2021/03/25 12:32:50;;;;;;;6.63;2.67;;;19.00;99.90;;;;;;5021180;28;20192;-65
2021/03/25 12:35:20;;;;;;;3.57;2.17;;;18.80;99.90;;;;;;5020398;28;20200;-65
2021/03/25 12:37:48;;;;;;;5.47;2.20;;;18.70;99.90;;;;;;5021274;28;20196;-66
2021/03/25 12:40:18;;;;;;;4.93;2.07;;;18.50;99.90;;;;;;5023390;28;20196;-65
2021/03/25 12:42:45;;;;;;;4.53;2.10;;;18.20;99.90;;;;;;5021315;28;20220;-66
2021/03/25 12:45:25;;;;;;;5.13;1.63;;;17.90;99.90;;;;;;5020708;28;20615;-66
2021/03/25 12:47:52;;;;;;;3.60;1.90;;;18.00;99.90;;;;;;5020380;28;20203;-65
2021/03/25 12:50:18;;;;;;;4.47;1.93;;;18.00;99.90;;;;;;5024077;28;20894;-65
2021/03/25 12:52:45;;;;;;;3.87;2.10;;;17.90;99.90;;;;;;5021453;28;20232;-65
2021/03/25 12:55:12;;;;;;;4.13;2.10;;;17.80;99.90;;;;;;5020589;28;20200;-66
2021/03/25 12:57:39;;;;;;;3.43;1.77;;;17.60;99.90;;;;;;5022013;28;20212;-66
2021/03/25 13:00:09;;;;;;;8.33;2.30;;;17.50;99.90;;;;;;5021411;28;20197;-66
2021/03/25 13:02:35;;;;;;;5.90;2.43;;;17.80;99.90;;;;;;5021920;28;20262;-66
2021/03/25 13:05:02;;;;;;;4.90;2.27;;;17.90;99.90;;;;;;5019815;28;20280;-66
2021/03/25 13:07:29;;;;;;;3.83;2.13;;;17.80;99.90;;;;;;5020487;28;20208;-66